sensor_id;sensor_type;location;lat;lon;timestamp;pressure;altitude;pressure_sealevel;temperature
76583;BMP280;65462;52.148;7.940;2023-03-31T00:00:51;99625.63;;;10.57
76583;BMP280;65462;52.148;7.940;2023-03-31T00:03:17;99630.03;;;10.53
76583;BMP280;65462;52.148;7.940;2023-03-31T00:05:46;99630.41;;;10.52
76583;BMP280;65462;52.148;7.940;2023-03-31T00:08:12;99626.91;;;10.48
76583;BMP280;65462;52.148;7.940;2023-03-31T00:10:43;99624.56;;;10.46
76583;BMP280;65462;52.148;7.940;2023-03-31T00:13:09;99616.59;;;10.43
76583;BMP280;65462;52.148;7.940;2023-03-31T00:15:35;99619.91;;;10.40
76583;BMP280;65462;52.148;7.940;2023-03-31T00:18:00;99607.81;;;10.39
76583;BMP280;65462;52.148;7.940;2023-03-31T00:20:26;99613.03;;;10.35
76583;BMP280;65462;52.148;7.940;2023-03-31T00:22:51;99607.31;;;10.33
76583;BMP280;65462;52.148;7.940;2023-03-31T00:25:19;99589.09;;;10.28
76583;BMP280;65462;52.148;7.940;2023-03-31T00:27:45;99599.25;;;10.26
76583;BMP280;65462;52.148;7.940;2023-03-31T00:30:14;99593.19;;;10.25
76583;BMP280;65462;52.148;7.940;2023-03-31T00:32:39;99586.25;;;10.21
76583;BMP280;65462;52.148;7.940;2023-03-31T00:35:05;99581.38;;;10.19
76583;BMP280;65462;52.148;7.940;2023-03-31T00:37:30;99572.28;;;10.20
76583;BMP280;65462;52.148;7.940;2023-03-31T00:39:58;99569.56;;;10.17
76583;BMP280;65462;52.148;7.940;2023-03-31T00:42:24;99572.13;;;10.13
76583;BMP280;65462;52.148;7.940;2023-03-31T00:47:41;99562.25;;;10.10
76583;BMP280;65462;52.148;7.940;2023-03-31T00:50:27;99566.25;;;10.04
76583;BMP280;65462;52.148;7.940;2023-03-31T00:53:10;99567.72;;;10.02
76583;BMP280;65462;52.148;7.940;2023-03-31T00:55:41;99557.84;;;9.99
76583;BMP280;65462;52.148;7.940;2023-03-31T00:58:08;99557.41;;;9.97
76583;BMP280;65462;52.148;7.940;2023-03-31T01:00:38;99554.78;;;9.97
76583;BMP280;65462;52.148;7.940;2023-03-31T01:03:06;99553.47;;;9.91
76583;BMP280;65462;52.148;7.940;2023-03-31T01:05:49;99538.75;;;9.90
76583;BMP280;65462;52.148;7.940;2023-03-31T01:08:18;99539.44;;;9.87
76583;BMP280;65462;52.148;7.940;2023-03-31T01:10:47;99531.44;;;9.83
76583;BMP280;65462;52.148;7.940;2023-03-31T01:13:14;99522.75;;;9.83
76583;BMP280;65462;52.148;7.940;2023-03-31T01:15:41;99523.84;;;9.82
76583;BMP280;65462;52.148;7.940;2023-03-31T01:18:07;99521.09;;;9.78
76583;BMP280;65462;52.148;7.940;2023-03-31T01:29:52;99502.16;;;9.73
76583;BMP280;65462;52.148;7.940;2023-03-31T01:38:03;99505.72;;;9.65
76583;BMP280;65462;52.148;7.940;2023-03-31T01:40:55;99489.13;;;9.64
76583;BMP280;65462;52.148;7.940;2023-03-31T01:43:32;99486.81;;;9.63
76583;BMP280;65462;52.148;7.940;2023-03-31T01:46:10;99474.00;;;9.61
76583;BMP280;65462;52.148;7.940;2023-03-31T01:49:07;99472.53;;;9.64
76583;BMP280;65462;52.148;7.940;2023-03-31T01:51:45;99476.28;;;9.63
76583;BMP280;65462;52.148;7.940;2023-03-31T01:56:48;99457.31;;;9.57
76583;BMP280;65462;52.148;7.940;2023-03-31T01:59:18;99453.91;;;9.56
76583;BMP280;65462;52.148;7.940;2023-03-31T02:01:58;99443.78;;;9.58
76583;BMP280;65462;52.148;7.940;2023-03-31T02:04:31;99452.13;;;9.60
76583;BMP280;65462;52.148;7.940;2023-03-31T02:07:06;99443.13;;;9.62
76583;BMP280;65462;52.148;7.940;2023-03-31T02:09:40;99440.13;;;9.63
76583;BMP280;65462;52.148;7.940;2023-03-31T02:12:09;99436.72;;;9.63
76583;BMP280;65462;52.148;7.940;2023-03-31T02:14:38;99434.97;;;9.67
76583;BMP280;65462;52.148;7.940;2023-03-31T02:17:06;99428.97;;;9.70
76583;BMP280;65462;52.148;7.940;2023-03-31T02:19:34;99424.13;;;9.72
76583;BMP280;65462;52.148;7.940;2023-03-31T02:22:01;99424.56;;;9.74
76583;BMP280;65462;52.148;7.940;2023-03-31T02:24:30;99412.50;;;9.73
76583;BMP280;65462;52.148;7.940;2023-03-31T02:27:06;99420.66;;;9.83
76583;BMP280;65462;52.148;7.940;2023-03-31T02:29:33;99405.69;;;9.87
76583;BMP280;65462;52.148;7.940;2023-03-31T02:34:44;99402.78;;;9.92
76583;BMP280;65462;52.148;7.940;2023-03-31T02:37:10;99393.31;;;9.91
76583;BMP280;65462;52.148;7.940;2023-03-31T02:39:37;99391.03;;;9.90
76583;BMP280;65462;52.148;7.940;2023-03-31T02:42:05;99383.53;;;9.92
76583;BMP280;65462;52.148;7.940;2023-03-31T02:44:35;99376.41;;;9.92
76583;BMP280;65462;52.148;7.940;2023-03-31T02:47:02;99367.88;;;9.99
76583;BMP280;65462;52.148;7.940;2023-03-31T02:49:28;99372.81;;;10.00
76583;BMP280;65462;52.148;7.940;2023-03-31T02:57:20;99366.56;;;10.08
76583;BMP280;65462;52.148;7.940;2023-03-31T03:16:57;99315.81;;;10.15
76583;BMP280;65462;52.148;7.940;2023-03-31T03:19:26;99310.53;;;10.15
76583;BMP280;65462;52.148;7.940;2023-03-31T03:21:51;99295.13;;;10.17
76583;BMP280;65462;52.148;7.940;2023-03-31T03:24:17;99299.34;;;10.21
76583;BMP280;65462;52.148;7.940;2023-03-31T03:26:43;99292.63;;;10.24
76583;BMP280;65462;52.148;7.940;2023-03-31T03:29:09;99297.47;;;10.22
76583;BMP280;65462;52.148;7.940;2023-03-31T03:31:37;99281.66;;;10.22
76583;BMP280;65462;52.148;7.940;2023-03-31T03:34:02;99276.78;;;10.24
76583;BMP280;65462;52.148;7.940;2023-03-31T03:36:28;99274.13;;;10.24
76583;BMP280;65462;52.148;7.940;2023-03-31T03:38:53;99265.81;;;10.22
76583;BMP280;65462;52.148;7.940;2023-03-31T03:41:18;99255.25;;;10.22
76583;BMP280;65462;52.148;7.940;2023-03-31T03:43:44;99246.56;;;10.21
76583;BMP280;65462;52.148;7.940;2023-03-31T03:46:09;99237.88;;;10.21
76583;BMP280;65462;52.148;7.940;2023-03-31T03:48:35;99234.13;;;10.22
76583;BMP280;65462;52.148;7.940;2023-03-31T03:51:00;99216.06;;;10.24
76583;BMP280;65462;52.148;7.940;2023-03-31T03:53:26;99214.97;;;10.25
76583;BMP280;65462;52.148;7.940;2023-03-31T03:55:51;99208.59;;;10.26
76583;BMP280;65462;52.148;7.940;2023-03-31T03:58:17;99203.97;;;10.23
76583;BMP280;65462;52.148;7.940;2023-03-31T04:00:44;99201.41;;;10.26
76583;BMP280;65462;52.148;7.940;2023-03-31T04:03:10;99188.22;;;10.26
76583;BMP280;65462;52.148;7.940;2023-03-31T04:05:35;99185.25;;;10.28
76583;BMP280;65462;52.148;7.940;2023-03-31T04:08:01;99187.13;;;10.27
76583;BMP280;65462;52.148;7.940;2023-03-31T04:10:27;99182.94;;;10.26
76583;BMP280;65462;52.148;7.940;2023-03-31T04:12:52;99182.22;;;10.26
76583;BMP280;65462;52.148;7.940;2023-03-31T04:15:17;99176.94;;;10.26
76583;BMP280;65462;52.148;7.940;2023-03-31T04:17:42;99170.09;;;10.25
76583;BMP280;65462;52.148;7.940;2023-03-31T04:20:15;99175.03;;;10.26
76583;BMP280;65462;52.148;7.940;2023-03-31T04:22:41;99177.66;;;10.26
76583;BMP280;65462;52.148;7.940;2023-03-31T04:25:08;99185.25;;;10.28
76583;BMP280;65462;52.148;7.940;2023-03-31T04:27:42;99176.19;;;10.29
76583;BMP280;65462;52.148;7.940;2023-03-31T04:30:20;99160.38;;;10.29
76583;BMP280;65462;52.148;7.940;2023-03-31T04:32:55;99160.00;;;10.30
76583;BMP280;65462;52.148;7.940;2023-03-31T04:35:22;99158.13;;;10.31
76583;BMP280;65462;52.148;7.940;2023-03-31T04:37:49;99157.72;;;10.29
76583;BMP280;65462;52.148;7.940;2023-03-31T04:40:15;99137.03;;;10.31
76583;BMP280;65462;52.148;7.940;2023-03-31T04:42:42;99121.94;;;10.32
76583;BMP280;65462;52.148;7.940;2023-03-31T04:45:08;99120.78;;;10.29
76583;BMP280;65462;52.148;7.940;2023-03-31T04:47:33;99107.59;;;10.29
76583;BMP280;65462;52.148;7.940;2023-03-31T04:49:59;99117.38;;;10.28
76583;BMP280;65462;52.148;7.940;2023-03-31T04:52:24;99118.13;;;10.29
76583;BMP280;65462;52.148;7.940;2023-03-31T04:54:49;99121.59;;;10.33
76583;BMP280;65462;52.148;7.940;2023-03-31T04:57:15;99117.50;;;10.36
76583;BMP280;65462;52.148;7.940;2023-03-31T04:59:40;99103.91;;;10.37
76583;BMP280;65462;52.148;7.940;2023-03-31T05:02:05;99102.41;;;10.36
76583;BMP280;65462;52.148;7.940;2023-03-31T05:04:30;99087.72;;;10.35
76583;BMP280;65462;52.148;7.940;2023-03-31T05:06:56;99082.75;;;10.34
76583;BMP280;65462;52.148;7.940;2023-03-31T05:09:21;99090.28;;;10.32
76583;BMP280;65462;52.148;7.940;2023-03-31T05:11:46;99082.00;;;10.33
76583;BMP280;65462;52.148;7.940;2023-03-31T05:14:12;99078.25;;;10.34
76583;BMP280;65462;52.148;7.940;2023-03-31T05:16:37;99065.06;;;10.34
76583;BMP280;65462;52.148;7.940;2023-03-31T05:19:02;99059.38;;;10.32
76583;BMP280;65462;52.148;7.940;2023-03-31T05:21:28;99063.13;;;10.31
76583;BMP280;65462;52.148;7.940;2023-03-31T05:23:56;99055.53;;;10.29
76583;BMP280;65462;52.148;7.940;2023-03-31T05:26:22;99057.06;;;10.30
76583;BMP280;65462;52.148;7.940;2023-03-31T05:28:49;99047.25;;;10.27
76583;BMP280;65462;52.148;7.940;2023-03-31T05:31:14;99047.28;;;10.31
76583;BMP280;65462;52.148;7.940;2023-03-31T05:33:39;99054.03;;;10.28
76583;BMP280;65462;52.148;7.940;2023-03-31T05:36:10;99046.50;;;10.30
76583;BMP280;65462;52.148;7.940;2023-03-31T05:38:36;99039.38;;;10.31
76583;BMP280;65462;52.148;7.940;2023-03-31T05:41:02;99042.00;;;10.31
76583;BMP280;65462;52.148;7.940;2023-03-31T05:43:27;99039.38;;;10.31
76583;BMP280;65462;52.148;7.940;2023-03-31T05:45:52;99035.63;;;10.32
76583;BMP280;65462;52.148;7.940;2023-03-31T05:48:18;99034.47;;;10.33
76583;BMP280;65462;52.148;7.940;2023-03-31T05:50:43;99027.69;;;10.32
76583;BMP280;65462;52.148;7.940;2023-03-31T05:53:08;99015.28;;;10.33
76583;BMP280;65462;52.148;7.940;2023-03-31T05:55:37;99005.44;;;10.33
76583;BMP280;65462;52.148;7.940;2023-03-31T05:58:02;99002.81;;;10.33
76583;BMP280;65462;52.148;7.940;2023-03-31T06:00:28;99002.41;;;10.31
76583;BMP280;65462;52.148;7.940;2023-03-31T06:02:53;98996.44;;;10.34
76583;BMP280;65462;52.148;7.940;2023-03-31T06:05:18;98990.75;;;10.32
76583;BMP280;65462;52.148;7.940;2023-03-31T06:07:44;98977.94;;;10.34
76583;BMP280;65462;52.148;7.940;2023-03-31T06:10:09;98967.00;;;10.32
76583;BMP280;65462;52.148;7.940;2023-03-31T06:12:35;98971.56;;;10.35
76583;BMP280;65462;52.148;7.940;2023-03-31T06:15:00;98958.72;;;10.34
76583;BMP280;65462;52.148;7.940;2023-03-31T06:17:26;98956.84;;;10.34
76583;BMP280;65462;52.148;7.940;2023-03-31T06:19:51;98950.03;;;10.33
76583;BMP280;65462;52.148;7.940;2023-03-31T06:22:16;98941.00;;;10.34
76583;BMP280;65462;52.148;7.940;2023-03-31T06:24:42;98947.81;;;10.35
76583;BMP280;65462;52.148;7.940;2023-03-31T06:27:07;98945.94;;;10.36
76583;BMP280;65462;52.148;7.940;2023-03-31T06:29:32;98927.81;;;10.34
76583;BMP280;65462;52.148;7.940;2023-03-31T06:31:58;98922.91;;;10.36
76583;BMP280;65462;52.148;7.940;2023-03-31T06:34:23;98918.41;;;10.37
76583;BMP280;65462;52.148;7.940;2023-03-31T06:36:48;98911.63;;;10.36
76583;BMP280;65462;52.148;7.940;2023-03-31T06:39:14;98918.03;;;10.38
76583;BMP280;65462;52.148;7.940;2023-03-31T06:41:39;98902.97;;;10.39
76583;BMP280;65462;52.148;7.940;2023-03-31T06:44:04;98905.66;;;10.42
76583;BMP280;65462;52.148;7.940;2023-03-31T06:46:30;98904.53;;;10.43
76583;BMP280;65462;52.148;7.940;2023-03-31T06:48:55;98905.66;;;10.46
76583;BMP280;65462;52.148;7.940;2023-03-31T06:51:20;98898.94;;;10.48
76583;BMP280;65462;52.148;7.940;2023-03-31T06:53:46;98899.00;;;10.52
76583;BMP280;65462;52.148;7.940;2023-03-31T06:56:11;98888.44;;;10.55
76583;BMP280;65462;52.148;7.940;2023-03-31T06:58:36;98887.00;;;10.58
76583;BMP280;65462;52.148;7.940;2023-03-31T07:01:03;98885.88;;;10.62
76583;BMP280;65462;52.148;7.940;2023-03-31T07:03:30;98878.78;;;10.66
76583;BMP280;65462;52.148;7.940;2023-03-31T07:05:56;98883.72;;;10.71
76583;BMP280;65462;52.148;7.940;2023-03-31T07:08:22;98881.13;;;10.75
76583;BMP280;65462;52.148;7.940;2023-03-31T07:10:49;98873.22;;;10.78
76583;BMP280;65462;52.148;7.940;2023-03-31T07:13:15;98871.00;;;10.80
76583;BMP280;65462;52.148;7.940;2023-03-31T07:15:41;98861.59;;;10.83
76583;BMP280;65462;52.148;7.940;2023-03-31T07:18:06;98862.72;;;10.85
76583;BMP280;65462;52.148;7.940;2023-03-31T07:20:33;98859.38;;;10.88
76583;BMP280;65462;52.148;7.940;2023-03-31T07:22:58;98868.13;;;10.92
76583;BMP280;65462;52.148;7.940;2023-03-31T07:25:24;98856.41;;;10.93
76583;BMP280;65462;52.148;7.940;2023-03-31T07:27:49;98847.75;;;10.96
76583;BMP280;65462;52.148;7.940;2023-03-31T07:30:17;98842.88;;;10.98
76583;BMP280;65462;52.148;7.940;2023-03-31T07:32:47;98852.69;;;11.01
76583;BMP280;65462;52.148;7.940;2023-03-31T07:35:13;98850.03;;;11.01
76583;BMP280;65462;52.148;7.940;2023-03-31T07:37:40;98834.59;;;11.03
76583;BMP280;65462;52.148;7.940;2023-03-31T07:40:07;98842.94;;;11.06
76583;BMP280;65462;52.148;7.940;2023-03-31T07:42:34;98839.19;;;11.07
76583;BMP280;65462;52.148;7.940;2023-03-31T07:44:59;98835.41;;;11.08
76583;BMP280;65462;52.148;7.940;2023-03-31T07:47:25;98836.53;;;11.10
76583;BMP280;65462;52.148;7.940;2023-03-31T07:49:51;98831.63;;;11.09
76583;BMP280;65462;52.148;7.940;2023-03-31T07:52:16;98835.78;;;11.10
76583;BMP280;65462;52.148;7.940;2023-03-31T07:54:44;98824.44;;;11.09
76583;BMP280;65462;52.148;7.940;2023-03-31T07:57:09;98824.81;;;11.08
76583;BMP280;65462;52.148;7.940;2023-03-31T07:59:34;98821.78;;;11.06
76583;BMP280;65462;52.148;7.940;2023-03-31T08:02:00;98817.66;;;11.08
76583;BMP280;65462;52.148;7.940;2023-03-31T08:04:25;98824.78;;;11.04
76583;BMP280;65462;52.148;7.940;2023-03-31T08:06:51;98834.19;;;11.01
76583;BMP280;65462;52.148;7.940;2023-03-31T08:09:16;98832.25;;;10.95
76583;BMP280;65462;52.148;7.940;2023-03-31T08:11:42;98834.50;;;10.93
76583;BMP280;65462;52.148;7.940;2023-03-31T08:14:08;98829.97;;;10.93
76583;BMP280;65462;52.148;7.940;2023-03-31T08:16:33;98821.66;;;10.91
76583;BMP280;65462;52.148;7.940;2023-03-31T08:18:59;98812.25;;;10.90
76583;BMP280;65462;52.148;7.940;2023-03-31T08:21:27;98808.03;;;10.86
76583;BMP280;65462;52.148;7.940;2023-03-31T08:23:54;98807.31;;;10.89
76583;BMP280;65462;52.148;7.940;2023-03-31T08:26:19;98822.81;;;10.90
76583;BMP280;65462;52.148;7.940;2023-03-31T08:28:46;98821.28;;;10.89
76583;BMP280;65462;52.148;7.940;2023-03-31T08:31:13;98815.63;;;10.91
76583;BMP280;65462;52.148;7.940;2023-03-31T08:33:40;98812.59;;;10.89
76583;BMP280;65462;52.148;7.940;2023-03-31T08:36:07;98812.19;;;10.87
76583;BMP280;65462;52.148;7.940;2023-03-31T08:38:37;98801.25;;;10.88
76583;BMP280;65462;52.148;7.940;2023-03-31T08:41:05;98799.41;;;10.92
76583;BMP280;65462;52.148;7.940;2023-03-31T08:43:39;98804.34;;;10.97
76583;BMP280;65462;52.148;7.940;2023-03-31T08:46:09;98801.38;;;11.02
76583;BMP280;65462;52.148;7.940;2023-03-31T08:48:38;98788.97;;;11.07
76583;BMP280;65462;52.148;7.940;2023-03-31T08:51:27;98787.50;;;11.13
76583;BMP280;65462;52.148;7.940;2023-03-31T08:54:00;98786.00;;;11.19
76583;BMP280;65462;52.148;7.940;2023-03-31T08:56:27;98792.47;;;11.25
76583;BMP280;65462;52.148;7.940;2023-03-31T08:58:54;98787.22;;;11.28
76583;BMP280;65462;52.148;7.940;2023-03-31T09:06:52;98783.13;;;11.38
76583;BMP280;65462;52.148;7.940;2023-03-31T09:12:04;98782.03;;;11.39
76583;BMP280;65462;52.148;7.940;2023-03-31T09:14:43;98774.44;;;11.41
76583;BMP280;65462;52.148;7.940;2023-03-31T09:17:24;98789.19;;;11.42
76583;BMP280;65462;52.148;7.940;2023-03-31T09:19:57;98789.94;;;11.39
76583;BMP280;65462;52.148;7.940;2023-03-31T09:22:30;98766.84;;;11.36
76583;BMP280;65462;52.148;7.940;2023-03-31T09:25:20;98776.66;;;11.32
76583;BMP280;65462;52.148;7.940;2023-03-31T09:27:49;98769.09;;;11.30
76583;BMP280;65462;52.148;7.940;2023-03-31T09:30:20;98773.59;;;11.26
76583;BMP280;65462;52.148;7.940;2023-03-31T09:32:48;98764.91;;;11.22
76583;BMP280;65462;52.148;7.940;2023-03-31T09:35:20;98759.59;;;11.19
76583;BMP280;65462;52.148;7.940;2023-03-31T09:37:47;98752.41;;;11.16
76583;BMP280;65462;52.148;7.940;2023-03-31T09:40:18;98745.59;;;11.15
76583;BMP280;65462;52.148;7.940;2023-03-31T09:42:45;98744.84;;;11.14
76583;BMP280;65462;52.148;7.940;2023-03-31T09:45:18;98766.75;;;11.15
76583;BMP280;65462;52.148;7.940;2023-03-31T09:47:54;98750.13;;;11.14
76583;BMP280;65462;52.148;7.940;2023-03-31T09:50:22;98740.28;;;11.11
76583;BMP280;65462;52.148;7.940;2023-03-31T09:52:56;98757.66;;;11.12
76583;BMP280;65462;52.148;7.940;2023-03-31T09:55:52;98763.28;;;11.11
76583;BMP280;65462;52.148;7.940;2023-03-31T09:58:18;98751.97;;;11.07
76583;BMP280;65462;52.148;7.940;2023-03-31T10:01:05;98758.75;;;11.08
76583;BMP280;65462;52.148;7.940;2023-03-31T10:03:43;98746.28;;;11.05
76583;BMP280;65462;52.148;7.940;2023-03-31T10:06:13;98748.16;;;11.04
76583;BMP280;65462;52.148;7.940;2023-03-31T10:08:51;98746.31;;;11.08
76583;BMP280;65462;52.148;7.940;2023-03-31T10:11:18;98733.47;;;11.07
76583;BMP280;65462;52.148;7.940;2023-03-31T10:16:13;98737.25;;;11.06
76583;BMP280;65462;52.148;7.940;2023-03-31T10:18:40;98732.72;;;11.10
76583;BMP280;65462;52.148;7.940;2023-03-31T10:21:17;98730.81;;;11.10
76583;BMP280;65462;52.148;7.940;2023-03-31T10:23:47;98737.25;;;11.09
76583;BMP280;65462;52.148;7.940;2023-03-31T10:26:17;98728.56;;;11.09
76583;BMP280;65462;52.148;7.940;2023-03-31T10:28:47;98727.44;;;11.10
76583;BMP280;65462;52.148;7.940;2023-03-31T10:31:14;98726.69;;;11.09
76583;BMP280;65462;52.148;7.940;2023-03-31T10:33:43;98724.41;;;11.11
76583;BMP280;65462;52.148;7.940;2023-03-31T10:36:28;98718.06;;;11.16
76583;BMP280;65462;52.148;7.940;2023-03-31T10:38:54;98716.88;;;11.17
76583;BMP280;65462;52.148;7.940;2023-03-31T10:41:25;98709.38;;;11.19
76583;BMP280;65462;52.148;7.940;2023-03-31T10:43:52;98707.88;;;11.21
76583;BMP280;65462;52.148;7.940;2023-03-31T10:46:19;98703.75;;;11.24
76583;BMP280;65462;52.148;7.940;2023-03-31T10:48:44;98708.28;;;11.27
76583;BMP280;65462;52.148;7.940;2023-03-31T10:51:26;98708.69;;;11.29
76583;BMP280;65462;52.148;7.940;2023-03-31T10:54:00;98707.53;;;11.30
76583;BMP280;65462;52.148;7.940;2023-03-31T10:56:43;98704.91;;;11.33
76583;BMP280;65462;52.148;7.940;2023-03-31T10:59:31;98702.28;;;11.37
76583;BMP280;65462;52.148;7.940;2023-03-31T11:02:12;98705.69;;;11.41
76583;BMP280;65462;52.148;7.940;2023-03-31T11:07:17;98705.00;;;11.51
76583;BMP280;65462;52.148;7.940;2023-03-31T11:13:21;98685.34;;;11.55
76583;BMP280;65462;52.148;7.940;2023-03-31T11:21:26;98687.69;;;11.60
76583;BMP280;65462;52.148;7.940;2023-03-31T11:24:16;98682.38;;;11.60
76583;BMP280;65462;52.148;7.940;2023-03-31T11:27:04;98676.69;;;11.62
76583;BMP280;65462;52.148;7.940;2023-03-31T11:32:36;98675.94;;;11.65
76583;BMP280;65462;52.148;7.940;2023-03-31T11:35:32;98669.53;;;11.66
76583;BMP280;65462;52.148;7.940;2023-03-31T11:38:19;98674.81;;;11.69
76583;BMP280;65462;52.148;7.940;2023-03-31T11:40:58;98663.91;;;11.71
76583;BMP280;65462;52.148;7.940;2023-03-31T11:43:35;98662.41;;;11.73
76583;BMP280;65462;52.148;7.940;2023-03-31T11:46:10;98660.13;;;11.79
76583;BMP280;65462;52.148;7.940;2023-03-31T11:51:44;98656.38;;;11.94
76583;BMP280;65462;52.148;7.940;2023-03-31T11:54:39;98654.50;;;12.02
76583;BMP280;65462;52.148;7.940;2023-03-31T11:57:15;98643.91;;;12.05
76583;BMP280;65462;52.148;7.940;2023-03-31T11:59:42;98643.16;;;12.12
76583;BMP280;65462;52.148;7.940;2023-03-31T12:02:18;98635.59;;;12.17
76583;BMP280;65462;52.148;7.940;2023-03-31T12:04:53;98637.88;;;12.22
76583;BMP280;65462;52.148;7.940;2023-03-31T12:07:29;98640.13;;;12.27
76583;BMP280;65462;52.148;7.940;2023-03-31T12:10:12;98622.38;;;12.31
76583;BMP280;65462;52.148;7.940;2023-03-31T12:12:48;98633.31;;;12.33
76583;BMP280;65462;52.148;7.940;2023-03-31T12:17:44;98631.44;;;12.37
76583;BMP280;65462;52.148;7.940;2023-03-31T12:20:32;98627.25;;;12.40
76583;BMP280;65462;52.148;7.940;2023-03-31T12:23:00;98625.38;;;12.37
76583;BMP280;65462;52.148;7.940;2023-03-31T12:25:43;98623.84;;;12.39
76583;BMP280;65462;52.148;7.940;2023-03-31T12:28:12;98617.44;;;12.37
76583;BMP280;65462;52.148;7.940;2023-03-31T12:30:40;98613.25;;;12.39
76583;BMP280;65462;52.148;7.940;2023-03-31T12:33:19;98603.06;;;12.38
76583;BMP280;65462;52.148;7.940;2023-03-31T12:36:18;98618.19;;;12.41
76583;BMP280;65462;52.148;7.940;2023-03-31T12:39:04;98604.53;;;12.46
76583;BMP280;65462;52.148;7.940;2023-03-31T12:41:45;98613.59;;;12.56
76583;BMP280;65462;52.148;7.940;2023-03-31T12:44:32;98615.88;;;12.68
76583;BMP280;65462;52.148;7.940;2023-03-31T12:47:12;98613.16;;;12.82
76583;BMP280;65462;52.148;7.940;2023-03-31T12:57:50;98621.47;;;12.87
76583;BMP280;65462;52.148;7.940;2023-03-31T13:00:25;98624.53;;;12.82
76583;BMP280;65462;52.148;7.940;2023-03-31T13:05:54;98621.16;;;12.68
76583;BMP280;65462;52.148;7.940;2023-03-31T13:11:14;98613.59;;;12.56
76583;BMP280;65462;52.148;7.940;2023-03-31T13:13:44;98612.13;;;12.51
76583;BMP280;65462;52.148;7.940;2023-03-31T13:16:10;98610.59;;;12.46
76583;BMP280;65462;52.148;7.940;2023-03-31T13:18:35;98612.13;;;12.47
76583;BMP280;65462;52.148;7.940;2023-03-31T13:21:02;98611.38;;;12.51
76583;BMP280;65462;52.148;7.940;2023-03-31T13:23:33;98612.47;;;12.53
76583;BMP280;65462;52.148;7.940;2023-03-31T13:25:59;98603.00;;;12.63
76583;BMP280;65462;52.148;7.940;2023-03-31T13:31:04;98599.16;;;12.81
76583;BMP280;65462;52.148;7.940;2023-03-31T13:41:41;98604.69;;;13.22
76583;BMP280;65462;52.148;7.940;2023-03-31T13:44:38;98599.41;;;13.22
76583;BMP280;65462;52.148;7.940;2023-03-31T13:52:38;98606.56;;;13.29
76583;BMP280;65462;52.148;7.940;2023-03-31T13:55:13;98612.59;;;13.29
76583;BMP280;65462;52.148;7.940;2023-03-31T13:58:05;98608.44;;;13.28
76583;BMP280;65462;52.148;7.940;2023-03-31T14:04:03;98604.69;;;13.22
76583;BMP280;65462;52.148;7.940;2023-03-31T14:06:52;98607.34;;;13.22
76583;BMP280;65462;52.148;7.940;2023-03-31T14:09:24;98598.63;;;13.21
76583;BMP280;65462;52.148;7.940;2023-03-31T14:11:50;98603.16;;;13.24
76583;BMP280;65462;52.148;7.940;2023-03-31T14:14:17;98607.31;;;13.25
76583;BMP280;65462;52.148;7.940;2023-03-31T14:16:54;98607.72;;;13.24
76583;BMP280;65462;52.148;7.940;2023-03-31T14:19:52;98599.75;;;13.20
76583;BMP280;65462;52.148;7.940;2023-03-31T14:22:33;98605.06;;;13.20
76583;BMP280;65462;52.148;7.940;2023-03-31T14:25:11;98598.63;;;13.21
76583;BMP280;65462;52.148;7.940;2023-03-31T14:27:41;98604.28;;;13.27
76583;BMP280;65462;52.148;7.940;2023-03-31T14:37:53;98573.94;;;13.32
76583;BMP280;65462;52.148;7.940;2023-03-31T14:40:20;98584.13;;;13.40
76583;BMP280;65462;52.148;7.940;2023-03-31T14:42:46;98573.50;;;13.40
76583;BMP280;65462;52.148;7.940;2023-03-31T14:45:17;98570.84;;;13.44
76583;BMP280;65462;52.148;7.940;2023-03-31T14:47:55;98568.94;;;13.48
76583;BMP280;65462;52.148;7.940;2023-03-31T14:50:27;98574.56;;;13.53
76583;BMP280;65462;52.148;7.940;2023-03-31T14:52:53;98577.59;;;13.55
76583;BMP280;65462;52.148;7.940;2023-03-31T14:55:23;98574.56;;;13.57
76583;BMP280;65462;52.148;7.940;2023-03-31T14:57:50;98567.31;;;13.61
76583;BMP280;65462;52.148;7.940;2023-03-31T15:00:25;98567.28;;;13.64
76583;BMP280;65462;52.148;7.940;2023-03-31T15:02:51;98564.63;;;13.64
76583;BMP280;65462;52.148;7.940;2023-03-31T15:05:28;98572.97;;;13.66
76583;BMP280;65462;52.148;7.940;2023-03-31T15:07:57;98554.75;;;13.68
76583;BMP280;65462;52.148;7.940;2023-03-31T15:10:24;98561.91;;;13.71
76583;BMP280;65462;52.148;7.940;2023-03-31T15:12:49;98555.47;;;13.72
76583;BMP280;65462;52.148;7.940;2023-03-31T15:15:17;98557.00;;;13.73
76583;BMP280;65462;52.148;7.940;2023-03-31T15:17:45;98556.19;;;13.76
76583;BMP280;65462;52.148;7.940;2023-03-31T15:22:49;98551.25;;;13.78
76583;BMP280;65462;52.148;7.940;2023-03-31T15:25:15;98545.19;;;13.78
76583;BMP280;65462;52.148;7.940;2023-03-31T15:27:49;98542.94;;;13.76
76583;BMP280;65462;52.148;7.940;2023-03-31T15:30:19;98541.41;;;13.79
76583;BMP280;65462;52.148;7.940;2023-03-31T15:32:45;98543.69;;;13.80
76583;BMP280;65462;52.148;7.940;2023-03-31T15:35:29;98537.22;;;13.78
76583;BMP280;65462;52.148;7.940;2023-03-31T15:37:57;98533.41;;;13.82
76583;BMP280;65462;52.148;7.940;2023-03-31T15:40:51;98515.94;;;13.85
76583;BMP280;65462;52.148;7.940;2023-03-31T15:43:27;98519.72;;;13.84
76583;BMP280;65462;52.148;7.940;2023-03-31T15:45:53;98514.81;;;13.82
76583;BMP280;65462;52.148;7.940;2023-03-31T15:48:28;98515.97;;;13.81
76583;BMP280;65462;52.148;7.940;2023-03-31T15:53:35;98514.47;;;13.80
76583;BMP280;65462;52.148;7.940;2023-03-31T15:56:01;98529.66;;;13.76
76583;BMP280;65462;52.148;7.940;2023-03-31T15:58:54;98533.81;;;13.77
76583;BMP280;65462;52.148;7.940;2023-03-31T16:01:20;98538.03;;;13.71
76583;BMP280;65462;52.148;7.940;2023-03-31T16:03:46;98533.53;;;13.68
76583;BMP280;65462;52.148;7.940;2023-03-31T16:06:21;98547.19;;;13.63
76583;BMP280;65462;52.148;7.940;2023-03-31T16:09:09;98522.22;;;13.57
76583;BMP280;65462;52.148;7.940;2023-03-31T16:11:45;98528.34;;;13.54
76583;BMP280;65462;52.148;7.940;2023-03-31T16:14:16;98527.63;;;13.47
76583;BMP280;65462;52.148;7.940;2023-03-31T16:16:55;98541.25;;;13.45
76583;BMP280;65462;52.148;7.940;2023-03-31T16:19:24;98542.81;;;13.39
76583;BMP280;65462;52.148;7.940;2023-03-31T16:21:54;98534.88;;;13.36
76583;BMP280;65462;52.148;7.940;2023-03-31T16:24:29;98538.31;;;13.33
76583;BMP280;65462;52.148;7.940;2023-03-31T16:27:02;98541.38;;;13.31
76583;BMP280;65462;52.148;7.940;2023-03-31T16:29:32;98521.69;;;13.29